Time;durP1;ratioP1;P1;durP2;ratioP2;P2;SDS_P1;SDS_P2;PMS_P1;PMS_P2;Temp;Humidity;BMP_temperature;BMP_pressure;BME280_temperature;BME280_humidity;BME280_pressure;Samples;Min_cycle;Max_cycle;Signal;HPM_P1;HPM_P2
2021/09/05 00:02:06;;;;;;;7.25;5.07;;;;;;;12.20;100.00;95211.56;5033667;28;20021;-57
2021/09/05 00:04:38;;;;;;;7.85;4.97;;;;;;;12.15;100.00;95214.25;5033248;28;20029;-56
2021/09/05 00:07:04;;;;;;;8.63;5.57;;;;;;;12.14;100.00;95216.13;5034761;28;20384;-55
2021/09/05 00:09:32;;;;;;;7.35;5.10;;;;;;;12.11;100.00;95218.56;5034293;28;20046;-56
2021/09/05 00:11:58;;;;;;;7.03;5.28;;;;;;;12.07;100.00;95210.25;5017042;28;20026;-55
2021/09/05 00:14:32;;;;;;;6.57;4.78;;;;;;;12.05;100.00;95211.59;5033269;28;20096;-54
2021/09/05 00:16:58;;;;;;;7.28;5.63;;;;;;;12.04;100.00;95223.38;5019988;28;20056;-57
2021/09/05 00:19:23;;;;;;;7.20;4.65;;;;;;;12.01;100.00;95211.31;5033577;28;20476;-58
2021/09/05 00:21:49;;;;;;;6.43;5.38;;;;;;;11.98;100.00;95219.91;5047914;28;20037;-55
2021/09/05 00:24:14;;;;;;;7.50;4.55;;;;;;;11.95;100.00;95217.78;5023625;28;20297;-58
2021/09/05 00:26:49;;;;;;;6.38;4.68;;;;;;;11.90;100.00;95223.13;5034057;28;20029;-58
2021/09/05 00:29:15;;;;;;;9.15;5.20;;;;;;;11.87;100.00;95221.81;5033921;28;20373;-56
2021/09/05 00:31:47;;;;;;;7.55;5.55;;;;;;;11.85;100.00;95221.28;5035170;28;20396;-58
2021/09/05 00:34:15;;;;;;;8.15;5.15;;;;;;;11.89;100.00;95218.84;5033531;28;20104;-58
2021/09/05 00:36:43;;;;;;;7.15;5.00;;;;;;;11.94;100.00;95218.84;5035253;28;20035;-58
2021/09/05 00:39:09;;;;;;;7.20;5.15;;;;;;;11.95;100.00;95219.66;5035267;28;20030;-58
2021/09/05 00:41:34;;;;;;;7.65;5.00;;;;;;;11.93;100.00;95214.53;5035171;28;20037;-57
2021/09/05 00:44:10;;;;;;;6.45;4.80;;;;;;;11.90;100.00;95215.88;5035075;28;20533;-57
2021/09/05 00:46:37;;;;;;;5.38;4.45;;;;;;;11.89;100.00;95211.59;5034038;28;20063;-58
2021/09/05 00:49:06;;;;;;;5.78;4.50;;;;;;;11.90;100.00;95210.50;5034946;28;20033;-58
2021/09/05 00:51:35;;;;;;;5.75;4.55;;;;;;;11.91;100.00;95219.38;5033998;28;20064;-58
2021/09/05 00:54:02;;;;;;;8.65;4.57;;;;;;;11.89;100.00;95225.00;5027413;28;20030;-57
2021/09/05 00:56:29;;;;;;;6.00;4.57;;;;;;;11.89;100.00;95218.84;5034899;28;20388;-56
2021/09/05 00:58:56;;;;;;;7.28;4.82;;;;;;;11.90;100.00;95233.88;5033164;28;20546;-58
2021/09/05 01:01:24;;;;;;;6.30;4.97;;;;;;;11.87;100.00;95235.22;5033057;28;20120;-58
2021/09/05 01:03:53;;;;;;;6.75;4.53;;;;;;;11.84;100.00;95240.34;5034775;28;20017;-56
2021/09/05 01:06:19;;;;;;;6.28;4.80;;;;;;;11.76;100.00;95230.09;5033599;28;20033;-58
2021/09/05 01:08:46;;;;;;;6.03;4.47;;;;;;;11.72;100.00;95240.56;5048052;23;20341;-61
2021/09/05 01:11:16;;;;;;;6.03;4.70;;;;;;;11.69;100.00;95234.91;5052724;28;20037;-59
2021/09/05 01:13:41;;;;;;;7.07;4.65;;;;;;;11.67;100.00;95247.78;5053842;28;20029;-58
2021/09/05 01:16:28;;;;;;;7.07;5.00;;;;;;;11.68;100.00;95244.84;5054212;28;20044;-60
2021/09/05 01:18:54;;;;;;;7.00;5.05;;;;;;;11.65;100.00;95249.94;5052008;28;20078;-61
2021/09/05 01:21:22;;;;;;;6.22;4.70;;;;;;;11.60;100.00;95246.16;5054252;28;20029;-61
2021/09/05 01:23:47;;;;;;;4.80;4.28;;;;;;;11.55;100.00;95248.06;5052852;28;20029;-60
2021/09/05 01:26:14;;;;;;;7.75;5.13;;;;;;;11.51;100.00;95249.66;5054044;28;20021;-61
2021/09/05 01:28:40;;;;;;;6.88;5.07;;;;;;;11.48;100.00;95248.31;5053825;28;20025;-61
2021/09/05 01:31:06;;;;;;;8.50;5.10;;;;;;;11.45;100.00;95256.88;5054133;28;20031;-61
2021/09/05 01:33:40;;;;;;;6.28;4.80;;;;;;;11.41;100.00;95255.81;5053871;28;20025;-60
2021/09/05 01:36:06;;;;;;;6.45;4.72;;;;;;;11.38;100.00;95260.88;5052766;28;20483;-60
2021/09/05 01:38:37;;;;;;;6.47;4.88;;;;;;;11.33;100.00;95270.53;5053870;28;20024;-61
2021/09/05 01:41:06;;;;;;;7.43;4.78;;;;;;;11.28;100.00;95269.72;5052430;28;20020;-60
2021/09/05 01:43:34;;;;;;;7.38;5.00;;;;;;;11.22;100.00;95274.28;5053664;28;20033;-60
2021/09/05 01:46:00;;;;;;;7.13;5.22;;;;;;;11.17;100.00;95279.59;5053696;28;20021;-59
2021/09/05 01:48:25;;;;;;;7.90;5.05;;;;;;;11.14;100.00;95280.13;5053670;28;20024;-61
2021/09/05 01:51:06;;;;;;;10.75;5.18;;;;;;;11.13;100.00;95281.22;5053678;28;20063;-61
2021/09/05 01:53:34;;;;;;;7.97;5.15;;;;;;;11.11;100.00;95280.66;5053559;28;20533;-58
2021/09/05 01:56:01;;;;;;;5.78;4.55;;;;;;;11.09;100.00;95282.81;5053980;28;20050;-60
2021/09/05 01:58:27;;;;;;;10.57;5.13;;;;;;;11.08;100.00;95280.41;5053495;28;20071;-57
2021/09/05 02:00:55;;;;;;;7.13;5.50;;;;;;;11.10;100.00;95286.28;5051634;28;20032;-59
2021/09/05 02:03:24;;;;;;;6.45;4.90;;;;;;;11.07;100.00;95282.28;5053452;28;20031;-60
2021/09/05 02:05:49;;;;;;;6.30;4.97;;;;;;;11.06;100.00;95287.88;5053408;28;20029;-57
2021/09/05 02:08:22;;;;;;;6.60;5.05;;;;;;;11.04;100.00;95285.47;5053337;28;20031;-61
2021/09/05 02:10:56;;;;;;;6.95;5.40;;;;;;;11.04;100.00;95280.91;5038490;28;20040;-61
2021/09/05 02:13:24;;;;;;;5.95;5.03;;;;;;;11.02;100.00;95288.41;5053223;28;20021;-61
2021/09/05 02:15:56;;;;;;;5.65;4.72;;;;;;;11.03;100.00;95278.50;5051932;28;20031;-60
2021/09/05 02:18:21;;;;;;;8.95;5.60;;;;;;;11.05;100.00;95279.03;5053060;28;20075;-60
2021/09/05 02:20:55;;;;;;;7.13;4.80;;;;;;;11.06;100.00;95287.88;5052887;28;20479;-60
2021/09/05 02:23:29;;;;;;;8.88;5.32;;;;;;;11.02;100.00;95285.72;5053057;28;20025;-60
2021/09/05 02:25:58;;;;;;;8.32;5.93;;;;;;;11.00;100.00;95287.06;5052985;28;20111;-60
2021/09/05 02:28:23;;;;;;;6.93;4.90;;;;;;;11.03;100.00;95295.38;5052768;28;20479;-61
2021/09/05 02:30:52;;;;;;;9.73;4.93;;;;;;;11.01;100.00;95292.16;5052877;28;20025;-61
2021/09/05 02:33:23;;;;;;;8.68;4.93;;;;;;;10.99;100.00;95290.81;5051611;28;20025;-60
2021/09/05 02:35:49;;;;;;;6.65;5.00;;;;;;;10.97;100.00;95288.41;5051624;28;20079;-59
2021/09/05 02:38:14;;;;;;;7.03;5.50;;;;;;;10.98;100.00;95291.88;5051853;28;20483;-60
2021/09/05 02:40:42;;;;;;;7.78;5.32;;;;;;;11.01;100.00;95286.78;5052727;28;20506;-61
2021/09/05 02:43:08;;;;;;;7.82;5.32;;;;;;;11.05;100.00;95284.38;5051391;28;20055;-61
2021/09/05 02:45:34;;;;;;;6.80;5.53;;;;;;;11.14;100.00;95271.28;5034922;28;20052;-61
2021/09/05 02:48:06;;;;;;;8.10;5.63;;;;;;;11.23;100.00;95269.72;5052602;28;20527;-61
2021/09/05 02:50:34;;;;;;;7.30;5.38;;;;;;;11.29;100.00;95266.78;5052627;28;20028;-61
2021/09/05 02:52:59;;;;;;;7.15;5.55;;;;;;;11.34;100.00;95263.31;5051177;28;20052;-61
2021/09/05 02:55:25;;;;;;;8.43;5.72;;;;;;;11.40;100.00;95269.50;5052586;28;20059;-61
2021/09/05 02:57:50;;;;;;;6.82;5.00;;;;;;;11.40;100.00;95274.88;5052411;28;20074;-61
2021/09/05 03:00:16;;;;;;;8.68;5.78;;;;;;;11.36;100.00;95269.19;5052313;28;20052;-60
2021/09/05 03:02:41;;;;;;;6.72;5.40;;;;;;;11.31;100.00;95270.00;5051164;28;20025;-61
2021/09/05 03:05:13;;;;;;;7.28;5.53;;;;;;;11.27;100.00;95265.41;5052483;28;20478;-60
2021/09/05 03:07:38;;;;;;;8.98;5.70;;;;;;;11.24;100.00;95265.97;5052314;28;20048;-61
2021/09/05 03:10:13;;;;;;;7.20;5.72;;;;;;;11.22;100.00;95268.91;5052003;28;20574;-61
2021/09/05 03:12:38;;;;;;;8.90;5.95;;;;;;;11.18;100.00;95270.50;5051588;28;20021;-61
2021/09/05 03:15:04;;;;;;;8.10;5.75;;;;;;;11.16;100.00;95271.81;5050928;28;20364;-61
2021/09/05 03:17:30;;;;;;;6.95;5.22;;;;;;;11.14;100.00;95268.59;5052563;28;20067;-61
2021/09/05 03:19:56;;;;;;;7.93;4.88;;;;;;;11.10;100.00;95270.22;5051932;28;20459;-60
2021/09/05 03:22:24;;;;;;;7.43;5.47;;;;;;;11.04;100.00;95270.19;5052259;28;20031;-61
2021/09/05 03:24:50;;;;;;;8.20;5.68;;;;;;;11.02;100.00;95274.19;5052173;28;20024;-58
2021/09/05 03:27:15;;;;;;;7.30;5.53;;;;;;;11.00;100.00;95270.97;5052000;28;20521;-58
2021/09/05 03:29:40;;;;;;;7.63;5.60;;;;;;;11.03;100.00;95270.44;5050715;28;20074;-58
2021/09/05 03:32:06;;;;;;;9.23;5.53;;;;;;;11.03;100.00;95267.75;5052242;28;20025;-61
2021/09/05 03:34:31;;;;;;;9.45;7.10;;;;;;;11.08;100.00;95270.47;5050575;28;20032;-61
2021/09/05 03:37:00;;;;;;;9.40;6.43;;;;;;;11.06;100.00;95272.59;5052024;28;20025;-60
2021/09/05 03:39:25;;;;;;;7.72;6.45;;;;;;;11.06;100.00;95274.47;5050486;28;20566;-60
2021/09/05 03:41:51;;;;;;;9.65;7.13;;;;;;;11.05;100.00;95270.97;5050499;28;20120;-60
2021/09/05 03:44:25;;;;;;;10.15;6.78;;;;;;;11.03;100.00;95270.44;5050728;28;20079;-59
2021/09/05 03:46:53;;;;;;;8.63;6.78;;;;;;;11.01;100.00;95270.72;5050467;28;20111;-59
2021/09/05 03:49:21;;;;;;;7.88;6.57;;;;;;;10.94;100.00;95272.81;5051753;28;20031;-61
2021/09/05 03:51:47;;;;;;;10.60;6.85;;;;;;;10.89;100.00;95272.81;5051844;28;20028;-60
2021/09/05 03:54:12;;;;;;;10.00;6.97;;;;;;;10.91;100.00;95269.88;5051751;28;20400;-60
2021/09/05 03:56:38;;;;;;;9.07;6.55;;;;;;;10.89;100.00;95262.09;5051706;28;20055;-58
2021/09/05 03:59:03;;;;;;;9.43;7.05;;;;;;;10.92;100.00;95271.47;5050317;28;20025;-61
2021/09/05 04:01:31;;;;;;;12.10;7.57;;;;;;;10.94;100.00;95269.34;5049701;28;20459;-60
2021/09/05 04:03:56;;;;;;;8.88;6.93;;;;;;;10.90;100.00;95263.69;5051656;28;20025;-61
2021/09/05 04:06:25;;;;;;;8.07;6.03;;;;;;;10.84;100.00;95269.28;5033870;28;20028;-61
2021/09/05 04:08:55;;;;;;;9.80;7.00;;;;;;;10.74;100.00;95270.03;5051237;28;20052;-60
2021/09/05 04:11:23;;;;;;;9.70;7.30;;;;;;;10.68;100.00;95268.44;5051574;28;20025;-59
2021/09/05 04:13:49;;;;;;;10.80;7.32;;;;;;;10.63;100.00;95266.50;5051547;28;20028;-61
2021/09/05 04:16:15;;;;;;;10.43;7.70;;;;;;;10.58;100.00;95271.06;5050261;28;20032;-60
2021/09/05 04:18:43;;;;;;;9.45;7.20;;;;;;;10.55;100.00;95276.94;5050245;28;20392;-61
2021/09/05 04:21:08;;;;;;;9.15;7.32;;;;;;;10.48;100.00;95279.03;5051514;28;20029;-60
2021/09/05 04:23:34;;;;;;;9.05;7.05;;;;;;;10.39;100.00;95274.16;5051303;28;20082;-61
2021/09/05 04:26:05;;;;;;;10.35;7.78;;;;;;;10.32;100.00;95278.94;5054847;28;20024;-60
2021/09/05 04:28:31;;;;;;;7.88;6.40;;;;;;;10.29;100.00;95286.66;5054977;28;20021;-59
2021/09/05 04:30:56;;;;;;;8.40;6.53;;;;;;;10.28;100.00;95285.06;5055117;28;20040;-60
2021/09/05 04:33:24;;;;;;;9.88;7.10;;;;;;;10.25;100.00;95283.72;5053877;28;20025;-58
2021/09/05 04:35:50;;;;;;;9.90;7.30;;;;;;;10.28;100.00;95283.19;5054989;28;20025;-59
2021/09/05 04:38:18;;;;;;;11.43;7.45;;;;;;;10.30;100.00;95280.25;5054778;28;20476;-59
2021/09/05 04:40:47;;;;;;;10.02;6.95;;;;;;;10.30;100.00;95280.25;5054858;28;20024;-60
2021/09/05 04:43:12;;;;;;;8.85;7.05;;;;;;;10.26;100.00;95279.97;5054691;28;20029;-60
2021/09/05 04:45:37;;;;;;;10.90;8.20;;;;;;;10.22;100.00;95276.19;5053608;28;20051;-61
2021/09/05 04:48:03;;;;;;;11.40;8.40;;;;;;;10.23;100.00;95266.31;5054676;28;20024;-60
2021/09/05 04:50:28;;;;;;;12.38;7.88;;;;;;;10.26;100.00;95271.13;5053410;28;20036;-61
2021/09/05 04:52:54;;;;;;;12.93;7.85;;;;;;;10.23;100.00;95269.78;5053552;28;20071;-59
2021/09/05 04:55:19;;;;;;;11.35;7.60;;;;;;;10.22;100.00;95272.72;5054654;28;20029;-59
2021/09/05 04:57:45;;;;;;;11.10;8.52;;;;;;;10.25;100.00;95275.69;5053238;28;20108;-61
2021/09/05 05:00:10;;;;;;;11.90;8.15;;;;;;;10.31;100.00;95263.94;5053256;28;20025;-61
2021/09/05 05:02:45;;;;;;;9.30;6.70;;;;;;;10.31;100.00;95274.66;5054498;28;20021;-60
2021/09/05 05:05:11;;;;;;;9.32;6.93;;;;;;;10.31;100.00;95269.31;5053004;28;20102;-60
2021/09/05 05:07:43;;;;;;;9.88;6.93;;;;;;;10.28;100.00;95269.00;5054391;28;20025;-59
2021/09/05 05:10:09;;;;;;;10.52;7.03;;;;;;;10.27;100.00;95273.53;5053910;28;20071;-60
2021/09/05 05:12:34;;;;;;;10.88;7.40;;;;;;;10.29;100.00;95274.09;5039325;28;20214;-60
2021/09/05 05:14:59;;;;;;;11.38;7.38;;;;;;;10.30;100.00;95273.03;5052980;28;20025;-60
2021/09/05 05:17:28;;;;;;;9.20;7.22;;;;;;;10.33;100.00;95269.84;5051370;28;20029;-61
2021/09/05 05:19:53;;;;;;;9.15;7.15;;;;;;;10.34;100.00;95271.47;5052632;28;20136;-61
2021/09/05 05:22:18;;;;;;;8.93;6.70;;;;;;;10.37;100.00;95272.81;5053114;28;20460;-61
2021/09/05 05:24:47;;;;;;;9.75;6.63;;;;;;;10.44;100.00;95278.75;5050917;28;20044;-61
2021/09/05 05:27:12;;;;;;;10.65;6.95;;;;;;;10.52;100.00;95277.44;5052422;28;20025;-61
2021/09/05 05:29:44;;;;;;;8.52;6.72;;;;;;;10.57;100.00;95277.47;5051723;28;20043;-60
2021/09/05 05:32:09;;;;;;;9.75;7.00;;;;;;;10.59;100.00;95278.81;5051731;28;20500;-58
2021/09/05 05:34:34;;;;;;;8.25;6.38;;;;;;;10.61;100.00;95278.56;5052855;28;20037;-57
2021/09/05 05:37:03;;;;;;;8.88;6.90;;;;;;;10.63;100.00;95279.91;5051785;28;20070;-60
2021/09/05 05:39:29;;;;;;;9.45;6.82;;;;;;;10.66;100.00;95289.31;5052727;28;20029;-60
2021/09/05 05:41:54;;;;;;;8.55;6.43;;;;;;;10.70;100.00;95272.44;5052921;28;20047;-60
2021/09/05 05:44:20;;;;;;;10.23;6.38;;;;;;;10.76;100.00;95269.81;5052915;28;20021;-60
2021/09/05 05:46:50;;;;;;;9.65;7.00;;;;;;;10.83;100.00;95278.41;5052380;28;20016;-60
2021/09/05 05:49:16;;;;;;;12.43;8.07;;;;;;;10.99;100.00;95278.22;5051322;28;20035;-61
2021/09/05 05:51:44;;;;;;;10.65;7.93;;;;;;;11.24;100.00;95265.97;5047570;28;20021;-58
2021/09/05 05:54:10;;;;;;;12.57;9.02;;;;;;;11.51;100.00;95271.94;5052656;28;20025;-61
2021/09/05 05:56:39;;;;;;;18.80;9.48;;;;;;;11.77;100.00;95266.59;5051916;28;20021;-61
2021/09/05 05:59:07;;;;;;;11.10;8.98;;;;;;;11.99;100.00;95263.66;5052620;28;20039;-58
2021/09/05 06:01:32;;;;;;;13.00;9.15;;;;;;;12.22;100.00;95270.38;5052328;28;20029;-59
2021/09/05 06:03:58;;;;;;;11.73;9.20;;;;;;;12.45;100.00;95267.09;5052569;28;20388;-61
2021/09/05 06:06:23;;;;;;;11.50;9.35;;;;;;;12.67;100.00;95262.22;5052219;28;20071;-56
2021/09/05 06:08:48;;;;;;;11.57;8.25;;;;;;;12.96;100.00;95261.59;5052246;28;20717;-60
2021/09/05 06:11:14;;;;;;;9.10;7.32;;;;;;;13.19;100.00;95265.53;5052447;28;20029;-60
2021/09/05 06:13:41;;;;;;;11.70;7.82;;;;;;;13.45;100.00;95268.91;5052313;28;20028;-60
2021/09/05 06:16:07;;;;;;;8.48;6.88;;;;;;;13.65;100.00;95271.47;5051551;28;20108;-60
2021/09/05 06:18:38;;;;;;;11.68;7.50;;;;;;;13.91;100.00;95264.84;5052332;28;20108;-60
2021/09/05 06:21:03;;;;;;;10.18;6.72;;;;;;;14.14;100.00;95271.38;5052072;28;20025;-57
2021/09/05 06:23:29;;;;;;;9.48;6.65;;;;;;;14.45;100.00;95271.94;5052283;28;20025;-60
2021/09/05 06:25:54;;;;;;;11.50;6.68;;;;;;;14.78;100.00;95264.06;5029864;28;20041;-57
2021/09/05 06:28:26;;;;;;;8.55;6.47;;;;;;;15.16;100.00;95251.47;5052272;28;20107;-60
2021/09/05 06:31:00;;;;;;;8.18;6.28;;;;;;;15.54;100.00;95238.00;5052225;28;20025;-59
2021/09/05 06:33:29;;;;;;;8.82;5.85;;;;;;;15.93;100.00;95221.50;5052095;28;20033;-60
2021/09/05 06:35:54;;;;;;;7.57;5.05;;;;;;;16.24;100.00;95206.38;5048259;28;20748;-56
2021/09/05 06:38:22;;;;;;;7.93;5.75;;;;;;;16.57;100.00;95173.06;5049802;28;20047;-57
2021/09/05 06:40:48;;;;;;;7.95;5.18;;;;;;;16.87;100.00;95128.41;5048201;28;20036;-57
2021/09/05 06:43:16;;;;;;;6.80;5.28;;;;;;;17.10;100.00;95084.84;5050725;28;20035;-61
2021/09/05 06:45:45;;;;;;;6.47;4.72;;;;;;;17.34;100.00;95019.59;5050384;28;20037;-57
2021/09/05 06:48:16;;;;;;;7.20;5.55;;;;;;;17.46;100.00;94948.63;5051850;28;20025;-60
2021/09/05 06:50:48;;;;;;;8.48;5.53;;;;;;;17.62;100.00;94911.09;5051627;28;20036;-59
2021/09/05 06:53:13;;;;;;;7.47;5.50;;;;;;;17.70;100.00;94887.91;5051804;28;20152;-59
2021/09/05 06:55:39;;;;;;;8.38;5.30;;;;;;;17.62;100.00;94884.03;5051069;28;20107;-60
2021/09/05 06:58:13;;;;;;;9.27;5.70;;;;;;;17.78;100.00;94881.69;5050523;28;20025;-61
2021/09/05 07:00:42;;;;;;;6.38;5.00;;;;;;;18.00;100.00;94892.44;5051618;28;20032;-60
2021/09/05 07:03:07;;;;;;;6.85;5.47;;;;;;;18.18;100.00;94891.34;5051582;28;20025;-61
2021/09/05 07:05:36;;;;;;;6.78;5.18;;;;;;;18.45;100.00;94911.13;5051299;28;20379;-60
2021/09/05 07:08:01;;;;;;;7.63;5.35;;;;;;;18.62;100.00;94934.75;5051469;28;20034;-58
2021/09/05 07:10:27;;;;;;;8.38;5.65;;;;;;;18.76;100.00;94957.13;5062730;23;20045;-54
2021/09/05 07:12:55;;;;;;;8.65;5.43;;;;;;;18.89;100.00;94977.09;5049741;28;20021;-51
2021/09/05 07:15:21;;;;;;;6.88;5.13;;;;;;;18.97;100.00;95006.13;4964898;28;22434;-52
2021/09/05 07:17:46;;;;;;;6.57;4.88;;;;;;;18.98;100.00;95035.66;5061803;28;20029;-55
2021/09/05 07:20:12;;;;;;;7.72;5.10;;;;;;;18.96;100.00;95069.69;5051699;28;20471;-60
2021/09/05 07:22:39;;;;;;;8.25;5.35;;;;;;;19.00;100.00;95082.31;5043906;28;20396;-55
2021/09/05 07:25:09;;;;;;;5.47;4.57;;;;;;;18.97;100.00;95098.44;5038964;28;20047;-66
2021/09/05 07:27:37;;;;;;;5.93;4.47;;;;;;;19.20;100.00;95120.81;5050414;28;20368;-59
2021/09/05 07:30:04;;;;;;;7.75;5.25;;;;;;;19.46;100.00;95137.94;5044482;28;20518;-56
2021/09/05 07:32:30;;;;;;;11.70;4.90;;;;;;;19.79;100.00;95170.88;5026465;28;20029;-56
2021/09/05 07:34:55;;;;;;;6.90;4.82;;;;;;;20.14;100.00;95203.47;5049960;28;20032;-56
2021/09/05 07:37:20;;;;;;;5.97;4.95;;;;;;;20.47;100.00;95244.56;5044612;28;20025;-55
2021/09/05 07:39:46;;;;;;;5.72;5.05;;;;;;;20.67;100.00;95267.56;5030156;28;20029;-56
2021/09/05 07:42:17;;;;;;;10.70;5.38;;;;;;;20.88;100.00;95301.13;5043137;28;20016;-55
2021/09/05 07:44:43;;;;;;;7.07;5.18;;;;;;;21.11;100.00;95316.13;5028608;28;20032;-55
2021/09/05 07:47:08;;;;;;;5.85;4.63;;;;;;;21.06;100.00;95354.44;5031771;28;20032;-59
2021/09/05 07:49:36;;;;;;;5.82;4.80;;;;;;;21.20;100.00;95361.59;5046001;28;20029;-66
2021/09/05 07:52:07;;;;;;;5.82;4.60;;;;;;;21.36;100.00;95368.94;5048425;28;20017;-55
2021/09/05 07:54:32;;;;;;;8.38;4.60;;;;;;;21.57;100.00;95392.75;5009744;28;20028;-56
2021/09/05 07:56:57;;;;;;;6.43;4.78;;;;;;;21.60;100.00;95436.53;5024519;28;20108;-56
2021/09/05 07:59:26;;;;;;;6.43;4.55;;;;;;;21.60;100.00;95468.41;5040258;28;20051;-55
2021/09/05 08:01:51;;;;;;;7.03;4.38;;;;;;;21.36;100.00;95486.09;5031368;28;20029;-56
2021/09/05 08:04:20;;;;;;;6.13;4.68;;;;;;;21.26;100.00;95477.47;5038518;28;20032;-58
2021/09/05 08:06:45;;;;;;;4.50;3.92;;;;;;;21.39;100.00;95488.19;5052847;28;20112;-55
2021/09/05 08:09:10;;;;;;;7.28;4.32;;;;;;;21.57;100.00;95486.22;5045625;28;20107;-58
2021/09/05 08:11:36;;;;;;;5.40;4.38;;;;;;;21.84;100.00;95498.66;5018283;28;20041;-57
2021/09/05 08:14:01;;;;;;;5.60;4.20;;;;;;;22.07;100.00;95504.69;5045734;28;20086;-61
2021/09/05 08:16:27;;;;;;;5.20;4.40;;;;;;;22.29;100.00;95514.53;5033471;28;20025;-55
2021/09/05 08:18:52;;;;;;;5.95;3.92;;;;;;;22.61;100.00;95502.16;5054009;28;20036;-60
2021/09/05 08:21:17;;;;;;;5.15;4.40;;;;;;;22.80;100.00;95531.75;5053331;28;20029;-55
2021/09/05 08:23:44;;;;;;;6.90;4.47;;;;;;;22.98;100.00;95566.03;5053981;28;20410;-56
2021/09/05 08:26:12;;;;;;;6.45;4.28;;;;;;;23.04;100.00;95586.56;5053786;28;20051;-53
2021/09/05 08:28:41;;;;;;;7.07;4.35;;;;;;;23.21;100.00;95593.03;5036105;28;20032;-55
2021/09/05 08:31:10;;;;;;;4.88;4.38;;;;;;;23.42;100.00;95604.78;5051224;28;20147;-52
2021/09/05 08:33:35;;;;;;;8.82;4.40;;;;;;;23.85;100.00;95587.22;5053634;28;20032;-54
2021/09/05 08:36:02;;;;;;;5.68;4.82;;;;;;;23.94;100.00;95635.25;5053965;28;20029;-56
2021/09/05 08:38:28;;;;;;;8.57;5.13;;;;;;;23.89;100.00;95635.47;5052900;28;20395;-56
2021/09/05 08:40:53;;;;;;;4.78;4.22;;;;;;;24.09;100.00;95600.97;5037416;28;20118;-60
2021/09/05 08:43:20;;;;;;;5.60;5.00;;;;;;;24.24;100.00;95597.59;5054329;28;20039;-52
2021/09/05 08:45:48;;;;;;;6.95;4.80;;;;;;;24.51;100.00;95620.81;5037145;28;20048;-56
2021/09/05 08:48:18;;;;;;;5.15;4.45;;;;;;;24.54;100.00;95622.88;5054665;28;20107;-55
2021/09/05 08:50:50;;;;;;;5.60;4.95;;;;;;;24.61;100.00;95637.94;5054799;28;20396;-52
2021/09/05 08:53:19;;;;;;;9.43;5.78;;;;;;;24.75;100.00;95627.47;5054577;28;20037;-55
2021/09/05 08:55:46;;;;;;;8.07;5.45;;;;;;;24.83;100.00;95632.00;5054731;28;20025;-52
2021/09/05 08:58:20;;;;;;;6.38;5.05;;;;;;;25.01;100.00;95618.88;5054610;28;20108;-56
2021/09/05 09:00:46;;;;;;;6.13;5.00;;;;;;;25.25;100.00;95645.50;5054866;28;20032;-55
2021/09/05 09:03:19;;;;;;;6.25;5.00;;;;;;;25.27;100.00;95656.91;5054595;28;20028;-54
2021/09/05 09:05:51;;;;;;;5.70;5.10;;;;;;;25.30;100.00;95650.75;5053245;28;20021;-58
2021/09/05 09:08:17;;;;;;;5.63;5.00;;;;;;;25.46;100.00;95654.38;5053346;28;20102;-55
2021/09/05 09:11:03;;;;;;;8.13;5.70;;;;;;;25.65;100.00;95671.03;5052966;28;20191;-54
2021/09/05 09:13:37;;;;;;;7.88;5.40;;;;;;;25.82;100.00;95678.19;5043328;28;20017;-56
2021/09/05 09:16:11;;;;;;;6.18;5.43;;;;;;;26.04;100.00;95676.84;5054285;28;20578;-55
2021/09/05 09:18:38;;;;;;;7.65;5.22;;;;;;;26.18;100.00;95670.97;5053163;28;20082;-55
2021/09/05 09:21:08;;;;;;;6.78;4.75;;;;;;;26.29;100.00;95703.09;5053946;28;20542;-55
2021/09/05 09:23:36;;;;;;;6.47;4.82;;;;;;;26.44;100.00;95684.25;5052762;28;20036;-56
2021/09/05 09:26:24;;;;;;;8.90;5.80;;;;;;;26.74;100.00;95714.88;5052897;28;20032;-53
2021/09/05 09:28:57;;;;;;;7.18;5.50;;;;;;;26.84;100.00;95728.91;5048498;28;21503;-53
2021/09/05 09:31:25;;;;;;;8.32;5.53;;;;;;;27.03;100.00;95725.50;5054080;28;20027;-55
2021/09/05 09:33:55;;;;;;;6.22;5.63;;;;;;;27.19;100.00;95736.47;5036028;28;20028;-57
2021/09/05 09:36:23;;;;;;;6.63;5.82;;;;;;;27.21;100.00;95744.38;5053873;28;20505;-56
2021/09/05 09:39:02;;;;;;;5.82;5.13;;;;;;;26.91;100.00;95739.28;5052510;28;20475;-55
2021/09/05 09:41:30;;;;;;;7.13;5.25;;;;;;;26.84;100.00;95720.66;5054019;28;20048;-56
2021/09/05 09:43:58;;;;;;;6.30;5.70;;;;;;;26.83;100.00;95726.53;5053820;28;20021;-52
2021/09/05 09:46:25;;;;;;;6.15;5.55;;;;;;;26.90;100.00;95709.38;5053503;28;20483;-54
2021/09/05 09:48:54;;;;;;;7.05;5.90;;;;;;;26.85;100.00;95732.47;5052311;28;20119;-54
2021/09/05 09:51:26;;;;;;;7.57;5.97;;;;;;;26.76;100.00;95742.81;5052588;28;20017;-56
2021/09/05 09:53:52;;;;;;;;;;;;;;;26.67;100.00;95739.44;5054341;28;20495;-56
2021/09/05 09:56:21;;;;;;;7.15;5.57;;;;;;;26.50;100.00;95740.56;5053502;28;20003;-53
2021/09/05 09:58:49;;;;;;;5.88;5.07;;;;;;;26.15;100.00;95718.34;5052401;28;20031;-51
2021/09/05 10:01:20;;;;;;;6.30;5.70;;;;;;;26.48;100.00;95732.63;5053167;28;20033;-52
2021/09/05 10:03:52;;;;;;;5.90;5.40;;;;;;;26.68;100.00;95741.03;5052230;28;20557;-52
2021/09/05 10:06:22;;;;;;;5.75;5.20;;;;;;;26.90;100.00;95731.38;5053304;28;20039;-51
2021/09/05 10:08:47;;;;;;;6.43;5.70;;;;;;;27.04;100.00;95738.09;5052058;28;20033;-52
2021/09/05 10:11:19;;;;;;;6.75;5.38;;;;;;;27.31;100.00;95732.84;5052442;28;20396;-55
2021/09/05 10:13:49;;;;;;;6.47;5.72;;;;;;;27.47;100.00;95747.38;5028103;28;20033;-54
2021/09/05 10:16:14;;;;;;;6.80;5.95;;;;;;;27.75;98.72;95758.28;5053398;28;20024;-53
2021/09/05 10:18:45;;;;;;;6.85;5.72;;;;;;;27.61;98.93;95760.69;5053086;28;20036;-54
2021/09/05 10:21:16;;;;;;;6.50;5.60;;;;;;;27.32;98.73;95750.94;5051640;28;20029;-55
2021/09/05 10:23:48;;;;;;;6.43;5.82;;;;;;;27.25;100.00;95756.28;5052815;28;20021;-54
2021/09/05 10:26:15;;;;;;;7.07;5.63;;;;;;;27.30;100.00;95750.50;5051620;28;20040;-52
2021/09/05 10:28:43;;;;;;;6.43;5.72;;;;;;;27.45;97.50;95757.94;5052958;28;20487;-57
2021/09/05 10:31:21;;;;;;;7.13;5.30;;;;;;;27.59;99.76;95752.78;5052758;28;20025;-58
2021/09/05 10:33:46;;;;;;;5.90;5.10;;;;;;;27.16;100.00;95745.44;5052875;28;20036;-56
2021/09/05 10:36:19;;;;;;;6.07;5.47;;;;;;;27.26;99.39;95746.88;5045966;28;20029;-57
2021/09/05 10:38:48;;;;;;;8.38;5.82;;;;;;;27.44;100.00;95743.38;5048186;28;20074;-55
2021/09/05 10:41:19;;;;;;;6.47;5.80;;;;;;;27.48;95.71;95771.00;5052468;28;20032;-52
2021/09/05 10:43:47;;;;;;;6.80;5.93;;;;;;;27.55;96.11;95762.88;5052566;28;20029;-53
2021/09/05 10:46:19;;;;;;;6.72;5.80;;;;;;;27.64;99.07;95748.94;5047186;28;20504;-54
2021/09/05 10:48:51;;;;;;;7.97;6.13;;;;;;;27.42;99.88;95750.41;5049796;28;20043;-53
2021/09/05 10:51:18;;;;;;;;;;;;;;;26.90;100.00;95745.13;5046545;28;20388;-53
2021/09/05 10:54:00;;;;;;;6.90;6.20;;;;;;;26.62;100.00;95731.44;5031299;28;19909;-55
2021/09/05 10:56:31;;;;;;;7.72;6.18;;;;;;;26.71;100.00;95732.09;5047632;28;20107;-54
2021/09/05 10:59:19;;;;;;;7.10;5.75;;;;;;;26.82;100.00;95733.16;5051142;28;20094;-53
2021/09/05 11:01:47;;;;;;;6.55;5.88;;;;;;;27.00;100.00;95731.66;5051039;28;20067;-54
2021/09/05 11:04:16;;;;;;;7.63;5.95;;;;;;;27.12;100.00;95719.78;5052378;28;20025;-53
2021/09/05 11:06:45;;;;;;;6.60;5.57;;;;;;;27.22;100.00;95745.97;5052167;28;20029;-55
2021/09/05 11:09:23;;;;;;;7.60;6.43;;;;;;;27.21;99.14;95760.88;5034403;28;20395;-56
2021/09/05 11:12:14;;;;;;;6.95;5.50;;;;;;;27.30;100.00;95737.53;5052139;28;20090;-56
2021/09/05 11:14:49;;;;;;;7.60;6.80;;;;;;;27.30;98.88;95764.25;5052252;28;20064;-54
2021/09/05 11:17:33;;;;;;;7.65;6.20;;;;;;;27.01;100.00;95744.25;5050060;28;20107;-55
2021/09/05 11:20:11;;;;;;;6.95;6.03;;;;;;;26.97;100.00;95734.31;5046832;28;20060;-51
2021/09/05 11:22:44;;;;;;;7.22;6.10;;;;;;;26.96;100.00;95739.03;5045990;28;20013;-54
2021/09/05 11:25:17;;;;;;;7.07;6.38;;;;;;;26.87;98.35;95765.88;5052146;28;20029;-59
2021/09/05 11:28:01;;;;;;;8.25;6.50;;;;;;;26.90;98.22;95762.41;5052273;28;20025;-52
2021/09/05 11:30:33;;;;;;;6.65;5.93;;;;;;;26.87;97.79;95766.69;5036007;28;20032;-54